59NE weather

CLOSED Nelson Airport
Boelus, Nebraska, United States

Public forecast

Using degrees Fahrenheit for public forecast. Weather courtesy of forecast.io.

Closest aviation weather report (METAR) to Nelson Airport

Closest report is Central Nebraska Regional Airport, 16.0 nm (29.7 km) ESE. Retrieved 2019/10/23 13:53 UTC (8 minutes ago):

KGRI 231353Z 31014KT 10SM CLR 09/04 A2984 RMK AO2 SLP113 T00890039

Closest aviation forecast (TAF) to Nelson Airport

Closest forecast is Central Nebraska Regional Airport, 16.0 nm (29.7 km) ESE. Retrieved 2019/10/23 12:39 UTC (1 hour ago):

TAF KGRI 231137Z 2312/2412 21011KT P6SM SCT100 BKN200 WS010/32045KT FM231400 27015G20KT P6SM SCT200 FM231700 31020G29KT P6SM FEW100 SCT200 FM240000 34014KT P6SM SCT100